createdAt,value
2018-12-19T00:00:54.338Z,98751.37
2018-12-19T00:03:21.784Z,98751.95
2018-12-19T00:05:49.226Z,98749.75
2018-12-19T00:08:16.675Z,98748.97
2018-12-19T00:10:44.127Z,98748.19
2018-12-19T00:13:13.674Z,98747.67
2018-12-19T00:15:41.130Z,98748.17
2018-12-19T00:18:08.594Z,98748.17
2018-12-19T00:20:36.219Z,98753.73
2018-12-19T00:23:03.686Z,98747.53
2018-12-19T00:25:31.137Z,98737.24
2018-12-19T00:27:58.605Z,98727.26
2018-12-19T00:30:26.051Z,98739.41
2018-12-19T00:32:53.512Z,98740.92
2018-12-19T00:35:20.958Z,98731.91
2018-12-19T00:37:48.406Z,98733.38
2018-12-19T00:40:15.857Z,98736.33
2018-12-19T00:42:43.311Z,98721.72
2018-12-19T00:45:10.761Z,98717.89
2018-12-19T00:47:38.222Z,98702.22
2018-12-19T00:50:06.238Z,98697.25
2018-12-19T00:52:33.685Z,98690.65
2018-12-19T00:55:01.141Z,98696.56
2018-12-19T00:57:28.594Z,98701.28
2018-12-19T00:59:56.051Z,98706.97
2018-12-19T01:02:23.493Z,98710.27
2018-12-19T01:04:50.949Z,98708.70
2018-12-19T01:07:18.404Z,98699.13
2018-12-19T01:09:45.881Z,98695.47
2018-12-19T01:12:13.336Z,98695.53
2018-12-19T01:14:40.792Z,98691.79
2018-12-19T01:17:08.241Z,98693.59
2018-12-19T01:19:35.716Z,98689.49
2018-12-19T01:22:03.168Z,98689.78
2018-12-19T01:24:30.638Z,98683.44
2018-12-19T01:26:58.093Z,98674.55
2018-12-19T01:29:25.561Z,98681.42
2018-12-19T01:31:53.012Z,98679.56
2018-12-19T01:34:20.476Z,98687.77
2018-12-19T01:36:47.924Z,98689.34
2018-12-19T01:39:15.395Z,98699.04
2018-12-19T01:41:42.845Z,98705.47
2018-12-19T01:44:10.310Z,98700.41
2018-12-19T01:46:37.777Z,98694.67
2018-12-19T01:49:05.224Z,98697.64
2018-12-19T01:51:32.685Z,98692.55
2018-12-19T01:54:00.132Z,98698.63
2018-12-19T01:56:27.592Z,98693.77
2018-12-19T01:58:55.037Z,98685.32
2018-12-19T02:01:22.578Z,98675.56
2018-12-19T02:03:50.033Z,98666.08
2018-12-19T02:06:17.489Z,98663.02
2018-12-19T02:08:44.947Z,98653.51
2018-12-19T02:11:12.405Z,98645.91
2018-12-19T02:13:39.937Z,98644.73
2018-12-19T02:16:07.402Z,98634.06
2018-12-19T02:18:34.933Z,98629.41
2018-12-19T02:21:02.400Z,98628.64
2018-12-19T02:23:29.839Z,98635.27
2018-12-19T02:25:57.297Z,98628.08
2018-12-19T02:28:24.752Z,98628.86
2018-12-19T02:30:52.196Z,98630.69
2018-12-19T02:33:19.677Z,98631.59
2018-12-19T02:35:47.126Z,98625.64
2018-12-19T02:38:14.589Z,98623.19
2018-12-19T02:40:42.043Z,98613.22
2018-12-19T02:43:09.511Z,98608.84
2018-12-19T02:45:37.553Z,98624.27
2018-12-19T02:48:05.017Z,98630.00
2018-12-19T02:50:32.552Z,98639.52
2018-12-19T02:53:00.026Z,98636.28
2018-12-19T02:55:27.473Z,98635.75
2018-12-19T02:57:54.952Z,98629.27
2018-12-19T03:00:22.408Z,98624.55
2018-12-19T03:02:49.878Z,98617.50
2018-12-19T03:05:17.336Z,98622.09
2018-12-19T03:07:44.893Z,98613.13
2018-12-19T03:10:12.343Z,98615.95
2018-12-19T03:12:40.311Z,98618.68
2018-12-19T03:15:07.855Z,98609.72
2018-12-19T03:17:35.385Z,98615.19
2018-12-19T03:20:02.920Z,98612.53
2018-12-19T03:22:30.365Z,98603.36
2018-12-19T03:24:57.830Z,98601.58
2018-12-19T03:27:25.276Z,98597.89
2018-12-19T03:29:52.749Z,98593.23
2018-12-19T03:32:20.201Z,98589.28
2018-12-19T03:34:47.668Z,98590.20
2018-12-19T03:37:15.117Z,98586.72
2018-12-19T03:39:42.573Z,98593.00
2018-12-19T03:42:10.051Z,98591.37
2018-12-19T03:44:37.521Z,98582.62
2018-12-19T03:47:04.967Z,98586.82
2018-12-19T03:49:33.014Z,98589.21
2018-12-19T03:52:00.565Z,98586.28
2018-12-19T03:54:28.520Z,98584.49
2018-12-19T03:56:56.551Z,98580.67
2018-12-19T03:59:24.025Z,98578.28
2018-12-19T04:01:51.468Z,98581.10
2018-12-19T04:04:18.962Z,98593.98
2018-12-19T04:06:46.418Z,98596.63
2018-12-19T04:09:13.868Z,98597.72
2018-12-19T04:11:41.334Z,98604.80
2018-12-19T04:14:08.782Z,98616.53
2018-12-19T04:16:36.241Z,98617.75
2018-12-19T04:19:03.707Z,98628.73
2018-12-19T04:21:31.165Z,98619.61
2018-12-19T04:23:58.613Z,98626.66
2018-12-19T04:26:26.089Z,98631.33
2018-12-19T04:28:53.529Z,98633.20
2018-12-19T04:31:20.989Z,98627.08
2018-12-19T04:33:48.438Z,98619.60
2018-12-19T04:36:15.889Z,98612.36
2018-12-19T04:38:43.353Z,98605.09
2018-12-19T04:41:10.824Z,98599.98
2018-12-19T04:43:38.263Z,98601.66
2018-12-19T04:46:05.877Z,98600.41
2018-12-19T04:48:33.320Z,98595.48
2018-12-19T04:51:00.794Z,98594.75
2018-12-19T04:53:28.255Z,98590.94
2018-12-19T04:55:55.706Z,98596.04
2018-12-19T04:58:23.176Z,98591.17
2018-12-19T05:00:50.623Z,98597.95
2018-12-19T05:03:18.085Z,98596.33
2018-12-19T05:05:45.534Z,98588.64
2018-12-19T05:08:13.008Z,98583.59
2018-12-19T05:10:40.450Z,98589.42
2018-12-19T05:13:07.907Z,98592.30
2018-12-19T05:15:35.368Z,98586.26
2018-12-19T05:18:02.834Z,98600.13
2018-12-19T05:20:30.283Z,98610.55
2018-12-19T05:22:57.744Z,98612.67
2018-12-19T05:25:25.195Z,98603.55
2018-12-19T05:27:52.661Z,98605.13
2018-12-19T05:30:20.120Z,98604.14
2018-12-19T05:32:47.587Z,98605.09
2018-12-19T05:35:15.050Z,98597.02
2018-12-19T05:37:42.501Z,98604.98
2018-12-19T05:40:09.961Z,98605.23
2018-12-19T05:42:37.414Z,98603.38
2018-12-19T05:45:06.025Z,98611.84
2018-12-19T05:47:33.557Z,98609.14
2018-12-19T05:50:01.309Z,98612.61
2018-12-19T05:52:29.046Z,98609.11
2018-12-19T05:54:56.606Z,98615.78
2018-12-19T05:57:24.249Z,98610.48
2018-12-19T05:59:51.709Z,98618.17
2018-12-19T06:02:19.163Z,98606.97
2018-12-19T06:04:46.637Z,98612.64
2018-12-19T06:07:14.088Z,98624.80
2018-12-19T06:09:41.538Z,98627.22
2018-12-19T06:12:08.999Z,98626.72
2018-12-19T06:14:37.732Z,98633.24
2018-12-19T06:17:05.439Z,98631.27
2018-12-19T06:19:32.910Z,98623.92
2018-12-19T06:22:00.369Z,98622.63
2018-12-19T06:24:27.840Z,98616.00
2018-12-19T06:26:55.276Z,98606.73
2018-12-19T06:29:22.736Z,98605.69
2018-12-19T06:31:50.202Z,98618.25
2018-12-19T06:34:17.679Z,98623.49
2018-12-19T06:36:45.126Z,98639.67
2018-12-19T06:39:12.654Z,98646.02
2018-12-19T06:41:40.117Z,98642.53
2018-12-19T06:44:07.562Z,98646.99
2018-12-19T06:46:35.036Z,98646.55
2018-12-19T06:49:02.477Z,98658.97
2018-12-19T06:51:29.941Z,98657.84
2018-12-19T06:53:57.381Z,98654.75
2018-12-19T06:56:24.843Z,98658.78
2018-12-19T06:58:52.294Z,98659.72
2018-12-19T07:01:19.754Z,98677.79
2018-12-19T07:03:47.229Z,98686.88
2018-12-19T07:06:14.697Z,98688.27
2018-12-19T07:08:42.154Z,98708.49
2018-12-19T07:11:09.620Z,98712.84
2018-12-19T07:13:37.083Z,98706.81
2018-12-19T07:16:04.540Z,98715.77
2018-12-19T07:18:32.335Z,98734.98
2018-12-19T07:21:00.380Z,98724.73
2018-12-19T07:23:27.825Z,98716.56
2018-12-19T07:25:55.272Z,98724.00
2018-12-19T07:28:22.740Z,98730.22
2018-12-19T07:30:50.185Z,98724.44
2018-12-19T07:33:17.649Z,98737.52
2018-12-19T07:35:45.099Z,98734.42
2018-12-19T07:38:12.556Z,98734.69
2018-12-19T07:40:45.500Z,98748.77
2018-12-19T07:43:09.502Z,98748.34
2018-12-19T07:45:36.950Z,98748.69
2018-12-19T07:48:04.425Z,98745.22
2018-12-19T07:50:31.873Z,98737.55
2018-12-19T07:52:59.441Z,98741.22
2018-12-19T07:55:28.932Z,98741.05
2018-12-19T07:57:56.406Z,98749.27
2018-12-19T08:00:27.439Z,98764.10
2018-12-19T08:02:53.334Z,98772.00
2018-12-19T08:05:26.126Z,98762.37
2018-12-19T08:07:50.278Z,98774.15
2018-12-19T08:10:17.737Z,98772.89
2018-12-19T08:12:45.220Z,98776.25
2018-12-19T08:15:12.674Z,98777.43
2018-12-19T08:17:40.180Z,98782.37
2018-12-19T08:20:07.941Z,98785.83
2018-12-19T08:22:35.403Z,98776.77
2018-12-19T08:25:02.936Z,98775.84
2018-12-19T08:27:30.390Z,98785.53
2018-12-19T08:29:57.853Z,98792.50
2018-12-19T08:32:25.298Z,98791.13
2018-12-19T08:34:52.765Z,98734.97
2018-12-19T08:37:20.217Z,98769.44
2018-12-19T08:39:47.691Z,98773.27
2018-12-19T08:42:15.588Z,98760.14
2018-12-19T08:44:43.061Z,98766.69
2018-12-19T08:47:10.514Z,98781.33
2018-12-19T08:49:37.988Z,98784.52
2018-12-19T08:52:05.428Z,98784.36
2018-12-19T08:54:32.891Z,98779.91
2018-12-19T08:57:00.340Z,98771.88
2018-12-19T08:59:27.786Z,98784.29
2018-12-19T09:01:55.251Z,98793.69
2018-12-19T09:04:25.839Z,98790.96
2018-12-19T09:06:52.216Z,98788.34
2018-12-19T09:09:20.436Z,98788.87
2018-12-19T09:11:47.892Z,98793.62
2018-12-19T09:14:15.337Z,98792.33
2018-12-19T09:16:42.797Z,98784.73
2018-12-19T09:19:10.245Z,98789.67
2018-12-19T09:21:37.708Z,98786.61
2018-12-19T09:24:05.153Z,98780.61
2018-12-19T09:26:32.623Z,98783.88
2018-12-19T09:29:00.069Z,98786.70
2018-12-19T09:31:27.526Z,98791.70
2018-12-19T09:33:54.966Z,98791.32
2018-12-19T09:36:22.425Z,98777.62
2018-12-19T09:38:49.869Z,98782.91
2018-12-19T09:41:17.330Z,98786.72
2018-12-19T09:43:44.780Z,98788.69
2018-12-19T09:46:12.240Z,98784.47
2018-12-19T09:48:39.700Z,98792.30
2018-12-19T09:51:07.161Z,98783.09
2018-12-19T09:53:35.222Z,98781.87
2018-12-19T09:56:02.662Z,98786.18
2018-12-19T09:58:30.245Z,98780.59
2018-12-19T10:00:57.698Z,98775.38
2018-12-19T10:03:25.152Z,98768.11
2018-12-19T10:05:52.601Z,98764.55
2018-12-19T10:08:20.066Z,98767.29
2018-12-19T10:10:47.526Z,98760.95
2018-12-19T10:13:14.990Z,98760.95
2018-12-19T10:15:42.441Z,98753.17
2018-12-19T10:18:09.906Z,98746.83
2018-12-19T10:20:37.350Z,98745.20
2018-12-19T10:23:04.816Z,98744.70
2018-12-19T10:25:32.301Z,98753.25
2018-12-19T10:27:59.920Z,98739.16
2018-12-19T10:30:27.369Z,98737.23
2018-12-19T10:32:55.712Z,98737.72
2018-12-19T10:35:23.943Z,98739.75
2018-12-19T10:37:51.397Z,98739.60
2018-12-19T10:40:18.869Z,98738.33
2018-12-19T10:42:46.318Z,98730.36
2018-12-19T10:45:13.892Z,98729.61
2018-12-19T10:47:41.335Z,98737.00
2018-12-19T10:50:09.265Z,98729.45
2018-12-19T10:52:36.719Z,98729.20
2018-12-19T10:55:05.059Z,98718.50
2018-12-19T10:57:32.868Z,98720.20
2018-12-19T11:00:00.339Z,98715.69
2018-12-19T11:02:27.793Z,98717.23
2018-12-19T11:04:55.262Z,98715.90
2018-12-19T11:07:22.714Z,98709.12
2018-12-19T11:09:50.174Z,98703.48
2018-12-19T11:12:17.639Z,98704.52
2018-12-19T11:14:45.104Z,98696.94
2018-12-19T11:17:12.558Z,98698.14
2018-12-19T11:19:40.022Z,98699.00
2018-12-19T11:22:09.444Z,98692.99
2018-12-19T11:24:37.029Z,98693.62
2018-12-19T11:27:04.486Z,98693.88
2018-12-19T11:29:31.929Z,98693.41
2018-12-19T11:31:59.393Z,98687.84
2018-12-19T11:34:26.838Z,98697.97
2018-12-19T11:36:54.297Z,98692.97
2018-12-19T11:39:21.757Z,98690.37
2018-12-19T11:41:49.234Z,98686.12
2018-12-19T11:44:16.669Z,98683.27
2018-12-19T11:46:44.133Z,98673.80
2018-12-19T11:49:11.578Z,98625.56
2018-12-19T11:51:39.049Z,98681.95
2018-12-19T11:54:06.502Z,98677.42
2018-12-19T11:56:33.972Z,98668.34
2018-12-19T11:59:01.421Z,98668.80
2018-12-19T12:01:28.891Z,98662.13
2018-12-19T12:03:56.338Z,98662.28
2018-12-19T12:06:23.804Z,98663.64
2018-12-19T12:08:51.259Z,98647.69
2018-12-19T12:11:18.717Z,98638.48
2018-12-19T12:13:46.173Z,98644.54
2018-12-19T12:16:13.625Z,98635.25
2018-12-19T12:18:41.085Z,98633.16
2018-12-19T12:21:08.531Z,98633.30
2018-12-19T12:23:35.987Z,98627.03
2018-12-19T12:26:03.462Z,98626.17
2018-12-19T12:28:30.912Z,98622.91
2018-12-19T12:30:58.444Z,98620.33
2018-12-19T12:33:25.901Z,98616.10
2018-12-19T12:35:53.645Z,98615.28
2018-12-19T12:38:21.103Z,98616.50
2018-12-19T12:40:48.557Z,98612.44
2018-12-19T12:43:16.017Z,98603.22
2018-12-19T12:45:43.465Z,98603.56
2018-12-19T12:48:10.942Z,98603.66
2018-12-19T12:50:38.389Z,98608.70
2018-12-19T12:53:05.857Z,98610.00
2018-12-19T12:55:33.308Z,98593.66
2018-12-19T12:58:00.781Z,98585.76
2018-12-19T13:00:28.240Z,98595.08
2018-12-19T13:02:55.701Z,98595.12
2018-12-19T13:05:23.651Z,98598.08
2018-12-19T13:07:51.094Z,98583.36
2018-12-19T13:10:18.549Z,98596.80
2018-12-19T13:12:46.082Z,98591.05
2018-12-19T13:15:15.545Z,98599.39
2018-12-19T13:17:43.576Z,98605.78
2018-12-19T13:20:11.125Z,98597.22
2018-12-19T13:22:38.573Z,98599.52
2018-12-19T13:25:06.044Z,98581.14
2018-12-19T13:27:33.495Z,98576.34
2018-12-19T13:30:00.954Z,98571.22
2018-12-19T13:32:28.397Z,98574.03
2018-12-19T13:34:55.866Z,98573.63
2018-12-19T13:37:23.306Z,98582.78
2018-12-19T13:39:50.773Z,98581.45
2018-12-19T13:42:18.219Z,98578.50
2018-12-19T13:44:45.670Z,98580.19
2018-12-19T13:47:13.112Z,98581.28
2018-12-19T13:49:40.594Z,98579.77
2018-12-19T13:52:08.047Z,98573.83
2018-12-19T13:54:35.510Z,98564.30
2018-12-19T13:57:02.972Z,98572.89
2018-12-19T13:59:30.417Z,98568.75
2018-12-19T14:01:57.901Z,98566.55
2018-12-19T14:04:25.425Z,98552.98
2018-12-19T14:06:52.905Z,98553.86
2018-12-19T14:09:20.348Z,98554.16
2018-12-19T14:11:47.809Z,98564.66
2018-12-19T14:14:15.265Z,98570.86
2018-12-19T14:16:42.720Z,98569.06
2018-12-19T14:19:10.249Z,98562.03
2018-12-19T14:21:37.732Z,98555.63
2018-12-19T14:24:05.184Z,98565.91
2018-12-19T14:26:32.654Z,98557.39
2018-12-19T14:29:00.101Z,98559.04
2018-12-19T14:31:27.577Z,98503.70
2018-12-19T14:33:55.132Z,98551.28
2018-12-19T14:36:22.782Z,98551.70
2018-12-19T14:38:50.251Z,98545.81
2018-12-19T14:41:17.705Z,98540.72
2018-12-19T14:43:45.170Z,98532.67
2018-12-19T14:46:12.621Z,98543.53
2018-12-19T14:48:40.086Z,98544.09
2018-12-19T14:51:07.638Z,98549.66
2018-12-19T14:53:35.099Z,98548.08
2018-12-19T14:56:02.562Z,98543.77
2018-12-19T14:58:30.020Z,98532.25
2018-12-19T15:00:57.471Z,98529.75
2018-12-19T15:03:24.925Z,98524.64
2018-12-19T15:05:52.381Z,98524.35
2018-12-19T15:08:19.838Z,98518.53
2018-12-19T15:10:47.286Z,98533.38
2018-12-19T15:13:14.756Z,98531.95
2018-12-19T15:15:44.200Z,98530.22
2018-12-19T15:18:11.657Z,98526.14
2018-12-19T15:20:39.111Z,98534.36
2018-12-19T15:23:06.577Z,98536.38
2018-12-19T15:25:34.040Z,98536.09
2018-12-19T15:28:01.494Z,98541.97
2018-12-19T15:30:28.953Z,98540.39
2018-12-19T15:32:56.906Z,98547.66
2018-12-19T15:35:24.377Z,98554.47
2018-12-19T15:37:51.821Z,98544.61
2018-12-19T15:40:19.288Z,98542.22
2018-12-19T15:42:46.740Z,98544.80
2018-12-19T15:45:14.216Z,98547.48
2018-12-19T15:47:41.666Z,98542.05
2018-12-19T15:50:09.214Z,98539.52
2018-12-19T15:52:36.654Z,98534.46
2018-12-19T15:55:04.232Z,98540.93
2018-12-19T15:57:31.690Z,98530.30
2018-12-19T15:59:59.150Z,98515.70
2018-12-19T16:02:26.591Z,98512.59
2018-12-19T16:04:54.045Z,98514.50
2018-12-19T16:07:21.502Z,98509.20
2018-12-19T16:09:48.966Z,98500.44
2018-12-19T16:12:16.423Z,98497.00
2018-12-19T16:14:43.877Z,98493.48
2018-12-19T16:17:11.357Z,98480.90
2018-12-19T16:19:38.805Z,98476.45
2018-12-19T16:22:06.269Z,98474.09
2018-12-19T16:24:33.720Z,98476.14
2018-12-19T16:27:01.481Z,98476.80
2018-12-19T16:29:28.938Z,98472.61
2018-12-19T16:31:56.401Z,98461.55
2018-12-19T16:34:23.857Z,98461.44
2018-12-19T16:36:51.334Z,98462.03
2018-12-19T16:39:18.782Z,98461.25
2018-12-19T16:41:46.261Z,98445.59
2018-12-19T16:44:13.708Z,98440.83
2018-12-19T16:46:41.176Z,98437.41
2018-12-19T16:49:08.627Z,98439.53
2018-12-19T16:51:36.090Z,98450.81
2018-12-19T16:54:03.626Z,98441.16
2018-12-19T16:56:31.285Z,98440.69
2018-12-19T16:58:58.736Z,98440.11
2018-12-19T17:01:26.194Z,98433.33
2018-12-19T17:03:53.638Z,98451.35
2018-12-19T17:06:21.105Z,98462.97
2018-12-19T17:08:48.565Z,98464.47
2018-12-19T17:11:16.023Z,98458.46
2018-12-19T17:13:43.511Z,98455.19
2018-12-19T17:16:10.979Z,98449.47
2018-12-19T17:18:38.553Z,98442.49
2018-12-19T17:21:06.003Z,98442.66
2018-12-19T17:23:33.475Z,98448.31
2018-12-19T17:26:01.420Z,98448.34
2018-12-19T17:28:28.898Z,98439.46
2018-12-19T17:30:56.340Z,98430.94
2018-12-19T17:33:23.806Z,98422.15
2018-12-19T17:35:51.247Z,98419.47
2018-12-19T17:38:18.729Z,98411.33
2018-12-19T17:40:46.178Z,98404.52
2018-12-19T17:43:13.641Z,98400.23
2018-12-19T17:45:41.107Z,98403.34
2018-12-19T17:48:08.563Z,98403.66
2018-12-19T17:50:36.007Z,98396.91
2018-12-19T17:53:03.462Z,98397.88
2018-12-19T17:55:30.924Z,98395.67
2018-12-19T17:57:58.379Z,98390.31
2018-12-19T18:00:26.434Z,98384.86
2018-12-19T18:02:53.886Z,98377.78
2018-12-19T18:05:21.373Z,98377.61
2018-12-19T18:07:48.818Z,98367.59
2018-12-19T18:10:16.756Z,98360.73
2018-12-19T18:12:44.214Z,98363.98
2018-12-19T18:15:11.685Z,98363.05
2018-12-19T18:17:39.134Z,98372.27
2018-12-19T18:20:06.997Z,98368.45
2018-12-19T18:22:34.458Z,98366.30
2018-12-19T18:25:01.945Z,98373.28
2018-12-19T18:27:29.402Z,98379.94
2018-12-19T18:29:56.866Z,98380.92
2018-12-19T18:32:24.542Z,98371.38
2018-12-19T18:34:52.016Z,98374.95
2018-12-19T18:37:19.482Z,98369.80
2018-12-19T18:39:46.934Z,98363.27
2018-12-19T18:42:14.397Z,98363.02
2018-12-19T18:44:41.858Z,98357.30
2018-12-19T18:47:09.321Z,98370.90
2018-12-19T18:49:36.766Z,98368.92
2018-12-19T18:52:04.231Z,98359.26
2018-12-19T18:54:31.680Z,98368.34
2018-12-19T18:56:59.153Z,98373.05
2018-12-19T18:59:27.119Z,98390.14
2018-12-19T19:01:54.753Z,98399.63
2018-12-19T19:04:22.311Z,98404.86
2018-12-19T19:06:49.873Z,98405.09
2018-12-19T19:09:17.336Z,98401.58
2018-12-19T19:11:44.802Z,98390.79
2018-12-19T19:14:12.246Z,98391.13
2018-12-19T19:16:39.741Z,98392.16
2018-12-19T19:19:07.191Z,98385.87
2018-12-19T19:21:34.707Z,98365.16
2018-12-19T19:24:02.243Z,98359.36
2018-12-19T19:26:29.852Z,98360.70
2018-12-19T19:28:57.393Z,98355.62
2018-12-19T19:31:24.833Z,98353.27
2018-12-19T19:33:52.309Z,98355.03
2018-12-19T19:36:19.761Z,98352.17
2018-12-19T19:38:47.234Z,98343.02
2018-12-19T19:41:14.684Z,98341.33
2018-12-19T19:43:42.142Z,98324.33
2018-12-19T19:46:09.597Z,98326.00
2018-12-19T19:48:37.070Z,98326.11
2018-12-19T19:51:04.523Z,98329.42
2018-12-19T19:53:32.179Z,98341.80
2018-12-19T19:55:59.625Z,98342.13
2018-12-19T19:58:27.092Z,98347.02
2018-12-19T20:00:54.546Z,98356.06
2018-12-19T20:03:22.004Z,98352.86
2018-12-19T20:05:49.458Z,98352.56
2018-12-19T20:08:16.919Z,98353.02
2018-12-19T20:10:44.366Z,98348.14
2018-12-19T20:13:11.841Z,98350.14
2018-12-19T20:15:39.390Z,98356.13
2018-12-19T20:18:07.200Z,98360.81
2018-12-19T20:20:34.651Z,98358.58
2018-12-19T20:23:02.110Z,98357.74
2018-12-19T20:25:29.582Z,98357.77
2018-12-19T20:27:57.046Z,98357.86
2018-12-19T20:30:24.513Z,98350.06
2018-12-19T20:32:51.974Z,98340.05
2018-12-19T20:35:19.582Z,98343.51
2018-12-19T20:37:47.035Z,98346.55
2018-12-19T20:40:14.519Z,98350.70
2018-12-19T20:42:41.970Z,98344.66
2018-12-19T20:45:09.434Z,98344.66
2018-12-19T20:47:36.878Z,98345.11
2018-12-19T20:50:07.325Z,98355.72
2018-12-19T20:52:34.774Z,98351.59
2018-12-19T20:55:02.259Z,98352.88
2018-12-19T20:57:29.810Z,98352.97
2018-12-19T20:59:57.319Z,98354.10
2018-12-19T21:02:24.878Z,98356.17
2018-12-19T21:04:52.329Z,98354.47
2018-12-19T21:07:19.798Z,98344.63
2018-12-19T21:09:59.020Z,98339.77
2018-12-19T21:12:26.498Z,98337.81
2018-12-19T21:14:53.961Z,98344.86
2018-12-19T21:17:27.023Z,98328.61
2018-12-19T21:19:54.489Z,98324.36
2018-12-19T21:22:22.916Z,98321.23
2018-12-19T21:24:50.368Z,98317.23
2018-12-19T21:27:17.839Z,98306.78
2018-12-19T21:29:45.284Z,98311.05
2018-12-19T21:32:12.756Z,98311.00
2018-12-19T21:34:40.203Z,98312.84
2018-12-19T21:37:07.678Z,98305.92
2018-12-19T21:39:35.139Z,98300.20
2018-12-19T21:42:02.606Z,98301.59
2018-12-19T21:44:30.123Z,98309.06
2018-12-19T21:46:57.686Z,98309.33
2018-12-19T21:49:25.222Z,98321.65
2018-12-19T21:51:52.697Z,98324.52
2018-12-19T21:54:20.173Z,98328.54
2018-12-19T21:56:47.606Z,98334.50
2018-12-19T21:59:15.071Z,98339.59
2018-12-19T22:01:42.631Z,98344.40
2018-12-19T22:04:10.221Z,98349.03
2018-12-19T22:06:37.852Z,98357.94
2018-12-19T22:09:11.096Z,98357.80
2018-12-19T22:11:38.549Z,98359.00
2018-12-19T22:14:06.012Z,98357.86
2018-12-19T22:16:38.907Z,98364.69
2018-12-19T22:19:06.568Z,98364.24
2018-12-19T22:21:34.126Z,98356.03
2018-12-19T22:24:01.596Z,98363.33
2018-12-19T22:26:29.041Z,98358.38
2018-12-19T22:28:56.584Z,98356.20
2018-12-19T22:31:24.201Z,98347.90
2018-12-19T22:33:51.674Z,98342.68
2018-12-19T22:36:19.153Z,98333.24
2018-12-19T22:38:46.641Z,98335.33
2018-12-19T22:41:14.188Z,98326.09
2018-12-19T22:43:41.647Z,98325.70
2018-12-19T22:46:09.226Z,98324.20
2018-12-19T22:48:36.678Z,98321.82
2018-12-19T22:51:04.228Z,98326.42
2018-12-19T22:53:31.672Z,98335.28
2018-12-19T22:55:59.150Z,98329.42
2018-12-19T22:58:26.825Z,98331.78
2018-12-19T23:00:59.930Z,98339.86
2018-12-19T23:03:32.986Z,98329.39
2018-12-19T23:06:00.464Z,98333.64
2018-12-19T23:08:28.027Z,98332.08
2018-12-19T23:10:55.766Z,98331.92
2018-12-19T23:13:23.208Z,98340.61
2018-12-19T23:15:50.656Z,98341.92
2018-12-19T23:18:23.640Z,98329.71
2018-12-19T23:20:51.315Z,98327.97
2018-12-19T23:23:18.885Z,98338.45
2018-12-19T23:25:46.337Z,98331.77
2018-12-19T23:28:14.402Z,98342.09
2018-12-19T23:30:42.288Z,98353.69
2018-12-19T23:33:09.781Z,98358.72
2018-12-19T23:35:37.259Z,98355.03
2018-12-19T23:38:04.742Z,98354.66
2018-12-19T23:40:32.290Z,98360.36
2018-12-19T23:42:59.871Z,98355.59
2018-12-19T23:45:27.714Z,98359.17
2018-12-19T23:47:55.502Z,98356.44
2018-12-19T23:50:23.214Z,98356.34
2018-12-19T23:52:50.949Z,98353.77
2018-12-19T23:55:18.698Z,98344.12
2018-12-19T23:57:46.269Z,98337.73
